Time;durP1;ratioP1;P1;durP2;ratioP2;P2;SDS_P1;SDS_P2;PMS_P1;PMS_P2;Temp;Humidity;BMP_temperature;BMP_pressure;BME280_temperature;BME280_humidity;BME280_pressure;Samples;Min_cycle;Max_cycle;Signal;HPM_P1;HPM_P2
2023/07/10 00:02:18;;;;;;;6.00;5.70;;;23.60;46.90;;;;;;6281388;28;20238;-80
2023/07/10 00:05:22;;;;;;;5.83;5.43;;;23.50;46.80;;;;;;6273374;28;20229;-79
2023/07/10 00:08:27;;;;;;;5.07;4.77;;;23.50;46.60;;;;;;6287332;28;20688;-79
2023/07/10 00:11:32;;;;;;;5.40;5.20;;;23.50;46.80;;;;;;6292987;28;20237;-79
2023/07/10 00:14:35;;;;;;;6.07;5.67;;;23.50;46.50;;;;;;6279297;28;20310;-81
2023/07/10 00:17:39;;;;;;;4.80;4.50;;;23.50;46.70;;;;;;6281375;28;20716;-80
2023/07/10 00:20:45;;;;;;;4.87;4.67;;;23.50;46.50;;;;;;6286960;28;20241;-82
2023/07/10 00:23:49;;;;;;;4.97;4.77;;;23.50;46.60;;;;;;6305525;28;20244;-82
2023/07/10 00:26:53;;;;;;;4.90;4.70;;;23.50;46.40;;;;;;6301392;28;20241;-79
2023/07/10 00:29:56;;;;;;;5.47;5.07;;;23.50;46.70;;;;;;6277390;28;20230;-80
2023/07/10 00:32:59;;;;;;;4.93;4.63;;;23.50;46.90;;;;;;6286598;28;20284;-78
2023/07/10 00:36:02;;;;;;;5.07;4.83;;;23.50;46.80;;;;;;6281509;28;20267;-79
2023/07/10 00:39:20;;;;;;;4.60;4.50;;;23.50;46.80;;;;;;6297780;28;20306;-80
2023/07/10 00:42:26;;;;;;;4.60;4.40;;;23.50;46.70;;;;;;6268297;28;20828;-81
2023/07/10 00:45:29;;;;;;;4.53;4.43;;;23.50;46.90;;;;;;6247347;28;20245;-79
2023/07/10 00:48:40;;;;;;;4.30;4.17;;;23.50;47.00;;;;;;6262558;28;20292;-79
2023/07/10 00:51:55;;;;;;;4.83;4.63;;;23.50;47.30;;;;;;6246502;28;20844;-81
2023/07/10 00:55:01;;;;;;;4.23;4.10;;;23.40;47.30;;;;;;6286778;28;20260;-79
2023/07/10 00:58:21;;;;;;;4.83;4.53;;;23.40;47.10;;;;;;6273593;28;20234;-79
2023/07/10 01:01:51;;;;;;;4.80;4.47;;;23.40;47.30;;;;;;6254737;28;20234;-81
2023/07/10 01:05:03;;;;;;;5.20;4.90;;;23.40;47.60;;;;;;6272268;28;20686;-80
2023/07/10 01:08:06;;;;;;;5.20;5.00;;;23.30;47.70;;;;;;6258912;28;20838;-78
2023/07/10 01:11:09;;;;;;;5.67;5.10;;;23.30;47.60;;;;;;6266352;28;20309;-80
2023/07/10 01:14:15;;;;;;;5.17;4.77;;;23.40;47.30;;;;;;6273583;28;20694;-80
2023/07/10 01:17:19;;;;;;;5.83;5.37;;;23.40;47.60;;;;;;6287968;28;20237;-78
2023/07/10 01:20:35;;;;;;;5.20;5.00;;;23.40;47.80;;;;;;6263033;28;20230;-80
2023/07/10 01:23:39;;;;;;;5.87;5.47;;;23.40;48.00;;;;;;6271374;28;20300;-79
2023/07/10 01:26:42;;;;;;;5.47;5.20;;;23.40;48.40;;;;;;6263735;28;20273;-81
2023/07/10 01:30:00;;;;;;;5.63;5.30;;;23.40;48.50;;;;;;6265795;28;20312;-81
2023/07/10 01:33:03;;;;;;;4.97;4.73;;;23.40;48.50;;;;;;6268467;28;20318;-80
2023/07/10 01:36:09;;;;;;;6.00;5.60;;;23.40;48.40;;;;;;6272558;28;20228;-81
2023/07/10 01:39:30;;;;;;;6.50;6.00;;;23.30;48.50;;;;;;6275440;28;20276;-79
2023/07/10 01:42:33;;;;;;;5.43;5.13;;;23.30;48.70;;;;;;6263048;28;20328;-78
2023/07/10 01:45:44;;;;;;;6.00;5.60;;;23.30;48.80;;;;;;6250126;28;20289;-81
2023/07/10 01:48:47;;;;;;;5.17;4.93;;;23.30;48.80;;;;;;6274536;28;20624;-81
2023/07/10 01:51:52;;;;;;;7.27;5.47;;;23.30;48.90;;;;;;6266409;28;20421;-80
2023/07/10 01:54:56;;;;;;;5.20;5.00;;;23.20;49.60;;;;;;6269614;28;20436;-79
2023/07/10 01:57:59;;;;;;;5.17;4.87;;;23.10;49.70;;;;;;6274114;28;20309;-81
2023/07/10 02:01:03;;;;;;;6.17;5.83;;;23.10;50.80;;;;;;6284746;28;20292;-82
2023/07/10 02:04:06;;;;;;;6.50;6.10;;;23.00;51.10;;;;;;6276221;28;20363;-79
2023/07/10 02:07:09;;;;;;;5.87;5.47;;;22.90;52.10;;;;;;6264923;28;20241;-79
2023/07/10 02:10:16;;;;;;;5.27;5.00;;;22.80;52.30;;;;;;6271994;28;21023;-80
2023/07/10 02:13:20;;;;;;;5.80;5.40;;;22.80;51.50;;;;;;6261125;28;20229;-78
2023/07/10 02:16:23;;;;;;;5.40;5.20;;;22.80;50.70;;;;;;6267607;28;20262;-79
2023/07/10 02:19:26;;;;;;;5.87;5.40;;;22.80;50.70;;;;;;6251594;28;20291;-79
2023/07/10 02:22:29;;;;;;;5.83;5.43;;;22.70;50.70;;;;;;6247577;28;20323;-80
2023/07/10 02:25:34;;;;;;;6.00;5.60;;;22.70;50.50;;;;;;6282407;28;20230;-81
2023/07/10 02:28:37;;;;;;;6.20;5.80;;;22.70;50.80;;;;;;6253616;28;20320;-78
2023/07/10 02:31:40;;;;;;;7.10;5.37;;;22.60;50.70;;;;;;6266192;28;20781;-79
2023/07/10 02:34:43;;;;;;;6.03;5.70;;;22.60;51.00;;;;;;6280293;28;20245;-79
2023/07/10 02:37:46;;;;;;;5.20;5.00;;;22.60;50.70;;;;;;6267966;28;20269;-79
2023/07/10 02:40:50;;;;;;;7.07;5.70;;;22.60;50.70;;;;;;6250365;28;20245;-80
2023/07/10 02:43:53;;;;;;;5.77;5.43;;;22.60;50.70;;;;;;6252697;28;20313;-79
2023/07/10 02:46:56;;;;;;;6.30;5.73;;;22.50;50.70;;;;;;6276477;28;20226;-78
2023/07/10 02:49:59;;;;;;;6.33;5.93;;;22.50;50.70;;;;;;6269581;28;20919;-79
2023/07/10 02:53:03;;;;;;;6.00;5.60;;;22.50;50.90;;;;;;6253418;28;20871;-81
2023/07/10 02:56:08;;;;;;;5.60;5.13;;;22.30;51.10;;;;;;6261120;28;20771;-80
2023/07/10 02:59:11;;;;;;;5.73;5.30;;;22.30;51.50;;;;;;6282243;28;20295;-78
2023/07/10 03:02:14;;;;;;;5.53;5.23;;;22.20;51.70;;;;;;6264741;28;20736;-80
2023/07/10 03:05:17;;;;;;;6.10;5.70;;;22.10;51.70;;;;;;6257048;28;20733;-78
2023/07/10 03:08:20;;;;;;;5.30;5.00;;;22.00;51.80;;;;;;6255265;28;20302;-80
2023/07/10 03:11:24;;;;;;;5.93;5.53;;;22.00;52.00;;;;;;6269819;28;20241;-79
2023/07/10 03:14:28;;;;;;;5.37;5.13;;;21.90;52.50;;;;;;6273062;28;20303;-78
2023/07/10 03:17:31;;;;;;;5.60;5.30;;;21.90;52.30;;;;;;6264926;28;20357;-80
2023/07/10 03:20:34;;;;;;;5.80;5.30;;;21.80;52.40;;;;;;6266004;28;20230;-77
2023/07/10 03:23:37;;;;;;;5.57;5.23;;;21.70;53.10;;;;;;6257225;28;20236;-79
2023/07/10 03:26:42;;;;;;;5.60;5.23;;;21.70;52.50;;;;;;6265234;28;20417;-77
2023/07/10 03:29:45;;;;;;;5.67;5.17;;;21.70;52.50;;;;;;6263086;28;20375;-79
2023/07/10 03:32:50;;;;;;;6.10;5.07;;;21.70;52.50;;;;;;6244030;28;20320;-75
2023/07/10 03:35:59;;;;;;;5.33;5.03;;;21.70;52.50;;;;;;6251627;28;20238;-76
2023/07/10 03:39:02;;;;;;;4.80;4.60;;;21.70;52.60;;;;;;6244632;28;20234;-76
2023/07/10 03:42:07;;;;;;;4.93;4.73;;;21.70;52.80;;;;;;6251000;28;20243;-76
2023/07/10 03:45:11;;;;;;;5.20;4.83;;;21.70;52.90;;;;;;6264785;28;20228;-76
2023/07/10 03:48:14;;;;;;;5.30;4.90;;;21.70;53.10;;;;;;6261558;28;21040;-76
2023/07/10 03:51:18;;;;;;;5.27;4.93;;;21.70;53.20;;;;;;6268826;28;20874;-77
2023/07/10 03:54:21;;;;;;;5.40;5.20;;;21.70;53.70;;;;;;6262149;28;21108;-77
2023/07/10 03:57:26;;;;;;;6.20;5.70;;;21.70;53.90;;;;;;6278934;28;20803;-75
2023/07/10 04:00:29;;;;;;;5.73;5.40;;;21.70;54.00;;;;;;6262573;28;20233;-77
2023/07/10 04:03:34;;;;;;;6.20;5.60;;;21.70;53.60;;;;;;6256392;28;20238;-76
2023/07/10 04:06:37;;;;;;;5.10;4.80;;;21.70;53.30;;;;;;6255772;28;20333;-77
2023/07/10 04:09:41;;;;;;;5.80;5.40;;;21.80;53.30;;;;;;6265714;28;20265;-75
2023/07/10 04:12:45;;;;;;;6.40;5.80;;;21.80;53.20;;;;;;6267468;28;20904;-77
2023/07/10 04:15:57;;;;;;;5.47;5.03;;;21.80;53.40;;;;;;6259791;28;20325;-77
2023/07/10 04:19:01;;;;;;;5.40;5.00;;;21.80;53.10;;;;;;6277790;28;20757;-77
2023/07/10 04:22:04;;;;;;;5.70;5.30;;;21.90;53.00;;;;;;6260881;28;20233;-78
2023/07/10 04:25:10;;;;;;;5.10;4.90;;;21.90;53.30;;;;;;6267864;28;20314;-76
2023/07/10 04:28:14;;;;;;;5.70;5.20;;;21.90;53.00;;;;;;6251239;28;20875;-75
2023/07/10 04:31:19;;;;;;;5.57;5.27;;;21.90;52.70;;;;;;6274988;28;20829;-76
2023/07/10 04:34:22;;;;;;;5.60;5.20;;;22.00;52.40;;;;;;6258550;28;20245;-78
2023/07/10 04:37:28;;;;;;;6.07;5.47;;;22.10;52.30;;;;;;6252036;28;20307;-78
2023/07/10 04:40:31;;;;;;;6.40;5.80;;;22.10;52.30;;;;;;6236628;28;20769;-75
2023/07/10 04:43:36;;;;;;;6.63;6.07;;;22.10;52.50;;;;;;6245787;28;20229;-76
2023/07/10 04:46:41;;;;;;;5.53;5.07;;;22.10;52.40;;;;;;6260634;28;20322;-78
2023/07/10 04:49:44;;;;;;;8.93;5.47;;;22.20;52.40;;;;;;6283136;28;20225;-78
2023/07/10 04:52:47;;;;;;;5.73;5.20;;;22.20;52.50;;;;;;6264549;28;20245;-78
2023/07/10 04:55:52;;;;;;;5.97;5.33;;;22.30;52.80;;;;;;6264578;28;20280;-78
2023/07/10 04:58:59;;;;;;;6.17;5.87;;;22.50;52.10;;;;;;6297729;28;20908;-78
2023/07/10 05:02:02;;;;;;;6.23;5.73;;;22.60;51.80;;;;;;6296675;28;20382;-80
2023/07/10 05:05:05;;;;;;;5.93;5.47;;;22.80;51.90;;;;;;6284990;28;20242;-79
2023/07/10 05:08:08;;;;;;;6.20;5.60;;;23.00;51.60;;;;;;6278195;28;20240;-78
2023/07/10 05:11:15;;;;;;;6.77;5.90;;;23.10;51.60;;;;;;6283757;28;20759;-79
2023/07/10 05:14:19;;;;;;;9.43;6.00;;;23.10;52.30;;;;;;6279908;28;20328;-77
2023/07/10 05:17:25;;;;;;;7.00;5.37;;;23.10;51.50;;;;;;6287049;28;20237;-77
2023/07/10 05:20:28;;;;;;;5.53;5.10;;;23.00;51.70;;;;;;6291452;28;20233;-75
2023/07/10 05:23:31;;;;;;;5.47;5.17;;;22.90;51.60;;;;;;6273168;28;20233;-77
2023/07/10 05:26:34;;;;;;;7.67;5.87;;;22.80;52.90;;;;;;6265845;28;20299;-75
2023/07/10 05:29:38;;;;;;;7.33;5.83;;;22.70;55.10;;;;;;6283665;28;20314;-77
2023/07/10 05:32:41;;;;;;;6.87;6.27;;;22.60;54.10;;;;;;6287004;28;20249;-76
2023/07/10 05:35:52;;;;;;;7.23;6.53;;;22.30;53.30;;;;;;6280719;28;20244;-78
2023/07/10 05:38:55;;;;;;;7.40;6.13;;;22.00;54.20;;;;;;6285757;28;21009;-76
2023/07/10 05:41:59;;;;;;;6.53;6.03;;;21.90;55.40;;;;;;6271526;28;20388;-77
2023/07/10 05:45:04;;;;;;;6.30;5.70;;;21.80;56.10;;;;;;6288464;28;20247;-79
2023/07/10 05:48:08;;;;;;;8.10;6.27;;;21.70;56.50;;;;;;6294119;28;20772;-75
2023/07/10 05:51:11;;;;;;;7.97;6.73;;;21.70;56.70;;;;;;6297442;28;20334;-78
2023/07/10 05:54:14;;;;;;;7.00;6.33;;;21.50;57.40;;;;;;6283581;28;20510;-77
2023/07/10 05:57:18;;;;;;;7.03;6.37;;;21.50;57.70;;;;;;6299346;28;20681;-77
2023/07/10 06:00:22;;;;;;;8.63;6.97;;;21.50;59.50;;;;;;6276731;28;20239;-76
2023/07/10 06:03:26;;;;;;;7.50;6.90;;;21.40;60.40;;;;;;6295922;28;20302;-78
2023/07/10 06:06:29;;;;;;;8.23;7.53;;;21.30;62.30;;;;;;6273013;28;20804;-78
2023/07/10 06:09:32;;;;;;;7.90;7.27;;;21.10;63.70;;;;;;6264982;28;20226;-77
2023/07/10 06:12:36;;;;;;;8.90;7.33;;;21.00;65.50;;;;;;6263056;28;20234;-77
2023/07/10 06:15:43;;;;;;;9.37;8.07;;;20.90;64.30;;;;;;6254738;28;20282;-75
2023/07/10 06:18:46;;;;;;;8.20;7.50;;;20.90;64.70;;;;;;6253485;28;20635;-74
2023/07/10 06:21:49;;;;;;;7.73;7.03;;;20.80;65.60;;;;;;6250191;28;20807;-78
2023/07/10 06:24:52;;;;;;;8.53;6.77;;;20.70;66.10;;;;;;6259075;28;20940;-76
2023/07/10 06:27:56;;;;;;;8.53;7.77;;;20.60;65.70;;;;;;6257666;28;20261;-76
2023/07/10 06:31:02;;;;;;;7.53;6.93;;;20.70;65.20;;;;;;6256396;28;20448;-75
2023/07/10 06:34:05;;;;;;;7.60;7.10;;;20.70;64.90;;;;;;6260471;28;20886;-75
2023/07/10 06:37:08;;;;;;;9.40;7.67;;;20.70;65.80;;;;;;6268355;28;20325;-76
2023/07/10 06:40:14;;;;;;;8.53;7.63;;;20.80;66.50;;;;;;6257856;28;20875;-76
2023/07/10 06:43:19;;;;;;;7.67;6.93;;;20.90;65.50;;;;;;6263053;28;20252;-77
2023/07/10 06:46:25;;;;;;;7.87;7.20;;;21.00;65.40;;;;;;6248580;28;20263;-81
2023/07/10 06:49:28;;;;;;;7.67;7.10;;;21.10;65.20;;;;;;6269200;28;20241;-82
2023/07/10 06:52:31;;;;;;;8.63;7.77;;;21.20;64.90;;;;;;6270575;28;20241;-79
2023/07/10 06:55:35;;;;;;;8.70;7.80;;;21.40;64.90;;;;;;6255349;28;20237;-79
2023/07/10 06:58:38;;;;;;;9.17;8.27;;;21.50;64.90;;;;;;6229617;28;20942;-79
2023/07/10 07:01:42;;;;;;;8.53;7.73;;;21.70;65.50;;;;;;6254477;28;20320;-78
2023/07/10 07:04:45;;;;;;;10.27;7.00;;;21.90;64.60;;;;;;6258993;28;20325;-80
2023/07/10 07:07:51;;;;;;;8.37;7.63;;;22.10;63.70;;;;;;6268378;28;20246;-79
2023/07/10 07:10:56;;;;;;;7.80;7.10;;;22.30;64.80;;;;;;6254446;28;20764;-79
2023/07/10 07:13:59;;;;;;;8.73;7.20;;;22.50;63.30;;;;;;6253651;28;20866;-77
2023/07/10 07:17:06;;;;;;;8.33;7.60;;;22.70;62.90;;;;;;6275798;28;20277;-80
2023/07/10 07:20:10;;;;;;;9.00;7.30;;;22.90;63.20;;;;;;6254980;28;20713;-80
2023/07/10 07:23:16;;;;;;;8.20;7.57;;;22.90;62.60;;;;;;6250958;28;20304;-79
2023/07/10 07:26:20;;;;;;;7.37;6.63;;;23.00;62.60;;;;;;6261213;28;20269;-77
2023/07/10 07:29:23;;;;;;;8.47;7.33;;;23.00;61.30;;;;;;6260258;28;20285;-77
2023/07/10 07:32:28;;;;;;;8.43;7.67;;;23.10;61.30;;;;;;6262343;28;20241;-78
2023/07/10 07:35:32;;;;;;;10.33;8.03;;;23.00;59.70;;;;;;6246135;28;20254;-80
2023/07/10 07:38:35;;;;;;;8.10;7.40;;;23.00;60.10;;;;;;6258451;28;20332;-78
2023/07/10 07:41:38;;;;;;;10.70;8.53;;;23.10;59.70;;;;;;6265013;28;20268;-79
2023/07/10 07:44:42;;;;;;;8.23;7.53;;;23.30;58.80;;;;;;6264079;28;20317;-80
2023/07/10 07:47:46;;;;;;;8.00;7.27;;;23.40;58.60;;;;;;6252723;28;20235;-78
2023/07/10 07:50:56;;;;;;;8.27;7.47;;;23.60;58.00;;;;;;6260835;28;20238;-77
2023/07/10 07:54:05;;;;;;;9.13;8.27;;;23.90;56.80;;;;;;6257884;28;20757;-77
2023/07/10 07:57:08;;;;;;;8.17;7.50;;;24.10;56.60;;;;;;6252767;28;20238;-79
2023/07/10 08:00:13;;;;;;;8.87;7.97;;;24.20;55.20;;;;;;6247423;28;20798;-78
2023/07/10 08:03:17;;;;;;;7.90;7.17;;;24.50;55.10;;;;;;6270019;28;20251;-77
2023/07/10 08:06:21;;;;;;;8.20;7.40;;;24.80;55.00;;;;;;6258964;28;20231;-80
2023/07/10 08:09:25;;;;;;;8.50;7.73;;;25.00;55.90;;;;;;6253613;28;20328;-80
2023/07/10 08:12:30;;;;;;;8.13;7.43;;;25.30;54.50;;;;;;6276163;28;20229;-80
2023/07/10 08:15:33;;;;;;;8.43;7.83;;;25.40;52.60;;;;;;6246059;28;20304;-78
2023/07/10 08:18:38;;;;;;;8.90;8.07;;;25.40;52.30;;;;;;6267861;28;20232;-79
2023/07/10 08:21:42;;;;;;;9.93;8.00;;;25.50;52.70;;;;;;6254994;28;20230;-77
2023/07/10 08:24:45;;;;;;;8.70;7.90;;;25.60;53.70;;;;;;6262920;28;20380;-80
2023/07/10 08:27:48;;;;;;;8.57;7.87;;;25.60;53.40;;;;;;6268387;28;20237;-79
2023/07/10 08:30:52;;;;;;;9.13;8.53;;;25.80;54.00;;;;;;6262727;28;20650;-78
2023/07/10 08:34:01;;;;;;;8.63;7.83;;;25.80;53.90;;;;;;6270438;28;20236;-79
2023/07/10 08:37:04;;;;;;;7.87;7.27;;;25.80;54.20;;;;;;6268265;28;20713;-80
2023/07/10 08:40:15;;;;;;;9.43;8.57;;;25.80;53.50;;;;;;6274307;28;20241;-78
2023/07/10 08:43:29;;;;;;;9.40;8.43;;;26.00;54.10;;;;;;6277258;28;20233;-78
2023/07/10 08:46:32;;;;;;;9.13;8.30;;;26.30;52.90;;;;;;6266230;28;20240;-79
2023/07/10 08:49:41;;;;;;;9.20;8.40;;;26.40;52.40;;;;;;6262639;28;20230;-80
2023/07/10 08:52:51;;;;;;;8.13;7.47;;;26.60;52.00;;;;;;6242475;28;20235;-82
2023/07/10 08:56:01;;;;;;;9.43;8.63;;;26.90;52.20;;;;;;6256039;28;21025;-80
2023/07/10 08:59:38;;;;;;;11.60;8.63;;;27.10;51.50;;;;;;6255401;28;20229;-81
2023/07/10 09:02:51;;;;;;;12.47;8.47;;;27.30;52.10;;;;;;6245566;28;20242;-77
2023/07/10 09:05:57;;;;;;;9.60;8.20;;;27.40;51.80;;;;;;6255084;28;20441;-82
2023/07/10 09:09:02;;;;;;;15.37;9.37;;;27.70;51.10;;;;;;6249009;28;20867;-80
2023/07/10 09:12:11;;;;;;;11.00;8.80;;;27.80;51.00;;;;;;6257729;28;20268;-79
2023/07/10 09:15:16;;;;;;;10.33;8.73;;;28.10;51.40;;;;;;6279523;28;20234;-82
2023/07/10 09:18:24;;;;;;;12.47;8.93;;;28.30;50.90;;;;;;6265347;28;20238;-80
2023/07/10 09:21:32;;;;;;;9.77;8.73;;;28.30;50.20;;;;;;6267001;28;20261;-79
2023/07/10 09:24:36;;;;;;;8.97;8.13;;;28.10;50.00;;;;;;6252047;28;20317;-80
2023/07/10 09:27:41;;;;;;;9.17;8.37;;;28.20;50.80;;;;;;6265807;28;20313;-79
2023/07/10 09:30:54;;;;;;;9.23;8.00;;;28.40;50.20;;;;;;6272362;28;20237;-79
2023/07/10 09:34:01;;;;;;;9.83;9.03;;;28.60;50.50;;;;;;6261452;28;20751;-79
2023/07/10 09:37:11;;;;;;;8.98;8.23;;;28.80;50.40;;;;;;6274005;28;20245;-79
2023/07/10 09:40:21;;;;;;;9.23;8.30;;;28.90;50.50;;;;;;6272786;28;20312;-79
2023/07/10 09:43:25;;;;;;;9.00;8.13;;;28.60;50.00;;;;;;6259709;28;20326;-80
2023/07/10 09:46:31;;;;;;;9.15;8.20;;;28.80;50.10;;;;;;6261371;28;20247;-82
2023/07/10 09:49:37;;;;;;;9.35;8.65;;;29.00;49.70;;;;;;6264050;28;20234;-82
2023/07/10 09:52:42;;;;;;;8.98;8.48;;;29.00;48.50;;;;;;6259772;28;20229;-80
2023/07/10 09:55:45;;;;;;;8.70;7.80;;;28.90;48.70;;;;;;6282627;28;20230;-79
2023/07/10 09:58:54;;;;;;;8.25;7.75;;;29.10;49.00;;;;;;6267445;28;20237;-80
2023/07/10 10:02:03;;;;;;;9.77;9.20;;;29.30;49.70;;;;;;6272159;28;20387;-82
2023/07/10 10:05:17;;;;;;;9.43;8.83;;;29.30;48.90;;;;;;6253262;28;20254;-82
2023/07/10 10:08:25;;;;;;;8.93;8.43;;;29.30;48.80;;;;;;6276177;28;20261;-79
2023/07/10 10:11:40;;;;;;;9.88;9.00;;;29.50;48.40;;;;;;6288340;28;20291;-79
2023/07/10 10:14:48;;;;;;;9.40;8.70;;;29.70;48.20;;;;;;6283193;28;20792;-79
2023/07/10 10:17:53;;;;;;;8.80;8.07;;;29.70;49.00;;;;;;6287276;28;20246;-79
2023/07/10 10:20:57;;;;;;;8.55;7.95;;;29.70;47.80;;;;;;6302673;28;20229;-80
2023/07/10 10:24:07;;;;;;;10.32;8.73;;;29.90;47.60;;;;;;6290376;28;20234;-81
2023/07/10 10:27:25;;;;;;;9.63;8.80;;;29.70;47.90;;;;;;6281777;28;20725;-80
2023/07/10 10:30:37;;;;;;;9.43;8.68;;;29.70;48.60;;;;;;6278368;28;20245;-82
2023/07/10 10:33:47;;;;;;;9.50;8.80;;;29.50;48.90;;;;;;6288458;28;20227;-81
2023/07/10 10:37:15;;;;;;;8.85;8.25;;;29.70;48.60;;;;;;6282047;28;20237;-79
2023/07/10 10:40:27;;;;;;;8.93;8.07;;;29.80;48.10;;;;;;6280658;28;20260;-81
2023/07/10 10:43:46;;;;;;;8.85;8.20;;;29.50;48.50;;;;;;6270946;28;20283;-81
2023/07/10 10:47:00;;;;;;;8.40;7.75;;;29.50;48.90;;;;;;6276847;28;20227;-79
2023/07/10 10:50:26;;;;;;;9.65;8.73;;;29.50;48.30;;;;;;6282659;28;20237;-79
2023/07/10 10:53:41;;;;;;;8.43;7.93;;;29.50;49.00;;;;;;6279964;28;20277;-79
2023/07/10 10:56:51;;;;;;;8.27;7.75;;;29.40;48.80;;;;;;6288630;28;20383;-80
2023/07/10 11:00:05;;;;;;;8.50;7.80;;;29.50;49.10;;;;;;6296800;28;20243;-79
2023/07/10 11:03:18;;;;;;;8.35;7.68;;;29.70;49.30;;;;;;6318214;28;20241;-80
2023/07/10 11:06:47;;;;;;;7.93;6.97;;;29.90;49.00;;;;;;6294362;28;20282;-80
2023/07/10 11:09:54;;;;;;;8.00;7.38;;;30.00;49.00;;;;;;6270703;28;20846;-81
2023/07/10 11:13:01;;;;;;;7.60;7.18;;;30.00;49.80;;;;;;6286958;28;20305;-80
2023/07/10 11:16:06;;;;;;;7.80;7.25;;;30.00;48.30;;;;;;6286208;28;20253;-78
2023/07/10 11:19:15;;;;;;;6.60;6.20;;;30.00;48.60;;;;;;6275137;28;20334;-78
2023/07/10 11:22:26;;;;;;;7.55;6.85;;;29.90;48.50;;;;;;6246590;28;20289;-78
2023/07/10 11:25:31;;;;;;;7.10;6.70;;;29.90;48.00;;;;;;6270087;28;20229;-81
2023/07/10 11:28:35;;;;;;;7.70;7.30;;;30.00;47.90;;;;;;6260110;28;20713;-79
2023/07/10 11:31:41;;;;;;;8.98;8.38;;;30.00;48.10;;;;;;6268570;28;20237;-80
2023/07/10 11:34:56;;;;;;;9.77;8.98;;;30.30;47.60;;;;;;6266359;28;20319;-78
2023/07/10 11:38:22;;;;;;;10.43;9.65;;;30.30;47.60;;;;;;6261495;28;20238;-79
2023/07/10 11:41:29;;;;;;;10.45;9.45;;;29.70;48.40;;;;;;6268621;28;20311;-79
2023/07/10 11:44:40;;;;;;;9.93;9.23;;;29.40;48.60;;;;;;6245874;28;20306;-81
2023/07/10 11:47:44;;;;;;;10.50;9.70;;;29.20;49.80;;;;;;6254053;28;20718;-81
2023/07/10 11:50:50;;;;;;;12.35;11.35;;;29.40;49.70;;;;;;6258862;28;20838;-80
2023/07/10 11:54:14;;;;;;;12.70;11.40;;;29.50;49.90;;;;;;6269260;28;20322;-82
2023/07/10 11:57:22;;;;;;;11.75;10.85;;;29.40;50.70;;;;;;6264339;28;20723;-77
2023/07/10 12:00:30;;;;;;;12.30;11.27;;;29.50;50.70;;;;;;6276580;28;20296;-80
2023/07/10 12:03:35;;;;;;;12.65;11.07;;;29.40;51.50;;;;;;6247847;28;20250;-78
2023/07/10 12:06:45;;;;;;;11.33;10.00;;;29.40;51.20;;;;;;6266389;28;20268;-78
2023/07/10 12:09:51;;;;;;;11.68;10.65;;;29.40;49.40;;;;;;6268100;28;20389;-78
2023/07/10 12:12:56;;;;;;;9.88;9.23;;;29.20;49.70;;;;;;6268187;28;20245;-79
2023/07/10 12:16:11;;;;;;;10.55;9.65;;;29.30;50.00;;;;;;6260065;28;20332;-79
2023/07/10 12:19:17;;;;;;;10.85;10.05;;;29.60;49.30;;;;;;6276278;28;20246;-78
2023/07/10 12:22:23;;;;;;;10.30;9.30;;;29.70;49.60;;;;;;6260567;28;20388;-80
2023/07/10 12:25:26;;;;;;;11.10;10.07;;;29.70;49.80;;;;;;6259760;28;20261;-78
2023/07/10 12:28:30;;;;;;;10.35;9.43;;;30.00;49.50;;;;;;6259076;28;20228;-81
2023/07/10 12:31:40;;;;;;;9.85;9.05;;;29.70;49.70;;;;;;6272356;28;20767;-80
2023/07/10 12:34:43;;;;;;;9.95;9.20;;;29.80;49.80;;;;;;6255630;28;20238;-81
2023/07/10 12:37:49;;;;;;;10.70;9.90;;;29.90;49.50;;;;;;6260452;28;20744;-78
2023/07/10 12:40:54;;;;;;;11.00;10.02;;;29.90;50.20;;;;;;6257508;28;20234;-79
2023/07/10 12:43:58;;;;;;;10.45;9.75;;;29.70;50.50;;;;;;6264947;28;20242;-79
2023/07/10 12:47:14;;;;;;;10.30;9.60;;;29.60;50.70;;;;;;6251982;28;20268;-80
2023/07/10 12:50:21;;;;;;;12.82;9.77;;;29.40;51.30;;;;;;6274881;28;20728;-78
2023/07/10 12:53:26;;;;;;;11.07;10.13;;;29.20;52.00;;;;;;6247091;28;20750;-80
2023/07/10 12:56:33;;;;;;;10.07;8.77;;;29.00;52.70;;;;;;6251048;28;20234;-79
2023/07/10 12:59:39;;;;;;;10.75;9.77;;;29.10;52.70;;;;;;6260102;28;20242;-80
2023/07/10 13:02:47;;;;;;;10.33;9.47;;;28.80;54.80;;;;;;6254599;28;20281;-79
2023/07/10 13:05:57;;;;;;;10.53;9.73;;;28.40;56.00;;;;;;6260918;28;20262;-78
2023/07/10 13:09:03;;;;;;;10.67;9.87;;;28.30;56.40;;;;;;6265106;28;20698;-80
2023/07/10 13:12:19;;;;;;;13.53;12.23;;;28.30;56.60;;;;;;6263397;28;20316;-78
2023/07/10 13:15:39;;;;;;;11.63;10.83;;;28.30;56.00;;;;;;6274975;28;20238;-80
2023/07/10 13:18:44;;;;;;;10.73;10.00;;;28.10;56.40;;;;;;6245790;28;20241;-82
2023/07/10 13:21:47;;;;;;;11.47;10.20;;;27.90;57.10;;;;;;6258673;28;20245;-80
2023/07/10 13:24:50;;;;;;;10.97;10.27;;;27.80;57.20;;;;;;6265344;28;20237;-80
2023/07/10 13:27:53;;;;;;;12.13;11.03;;;27.80;57.00;;;;;;6258913;28;20246;-78
2023/07/10 13:30:57;;;;;;;11.30;10.60;;;27.70;57.20;;;;;;6264079;28;20269;-79
2023/07/10 13:34:01;;;;;;;11.77;10.60;;;28.20;56.70;;;;;;6265273;28;20234;-79
2023/07/10 13:37:10;;;;;;;12.27;10.63;;;28.50;56.50;;;;;;6262607;28;20837;-79
2023/07/10 13:40:23;;;;;;;10.40;9.43;;;28.50;56.40;;;;;;6256714;28;20327;-78
2023/07/10 13:43:26;;;;;;;11.93;10.97;;;28.40;56.40;;;;;;6258323;28;20739;-78
2023/07/10 13:46:31;;;;;;;12.37;10.67;;;28.10;56.80;;;;;;6264768;28;20240;-81
2023/07/10 13:49:36;;;;;;;12.53;11.53;;;27.80;57.30;;;;;;6261771;28;20230;-81
2023/07/10 13:52:39;;;;;;;11.90;11.00;;;27.50;57.40;;;;;;6271581;28;20237;-80
2023/07/10 13:55:42;;;;;;;12.13;11.03;;;27.50;57.60;;;;;;6256669;28;20274;-80
2023/07/10 13:58:46;;;;;;;12.07;11.00;;;27.10;58.40;;;;;;6257001;28;20292;-80
2023/07/10 14:01:49;;;;;;;11.97;11.10;;;26.90;59.00;;;;;;6263614;28;20311;-80
2023/07/10 14:04:58;;;;;;;11.67;10.77;;;27.00;58.40;;;;;;6262060;28;20237;-80
2023/07/10 14:08:01;;;;;;;12.97;11.93;;;27.40;57.90;;;;;;6259846;28;20253;-79
2023/07/10 14:11:04;;;;;;;12.47;11.47;;;27.50;57.10;;;;;;6279216;28;20229;-81
2023/07/10 14:14:13;;;;;;;11.87;10.87;;;27.30;57.60;;;;;;6274747;28;20420;-81
2023/07/10 14:17:27;;;;;;;11.10;10.20;;;27.30;57.90;;;;;;6259503;28;20234;-80
2023/07/10 14:20:32;;;;;;;11.77;10.53;;;27.30;56.90;;;;;;6264086;28;20279;-78
2023/07/10 14:23:35;;;;;;;10.27;9.67;;;27.40;57.20;;;;;;6261449;28;20329;-80
2023/07/10 14:26:39;;;;;;;10.87;9.93;;;27.40;56.90;;;;;;6256851;28;20273;-79
2023/07/10 14:29:42;;;;;;;11.23;10.47;;;27.00;57.50;;;;;;6255205;28;20238;-82
2023/07/10 14:32:45;;;;;;;9.87;9.17;;;27.30;57.10;;;;;;6263168;28;20246;-81
2023/07/10 14:35:50;;;;;;;10.80;10.00;;;27.40;56.60;;;;;;6261471;28;20234;-80
2023/07/10 14:38:56;;;;;;;9.40;8.77;;;27.70;56.20;;;;;;6261556;28;20241;-80
2023/07/10 14:41:59;;;;;;;9.43;8.73;;;28.00;56.00;;;;;;6263951;28;20242;-80
2023/07/10 14:45:02;;;;;;;8.87;8.23;;;28.00;55.70;;;;;;6259781;28;20330;-82
2023/07/10 14:48:05;;;;;;;9.20;8.60;;;28.00;55.30;;;;;;6257952;28;20257;-80
2023/07/10 14:51:11;;;;;;;9.17;8.47;;;27.80;55.50;;;;;;6259144;28;20246;-81
2023/07/10 14:54:15;;;;;;;8.47;8.03;;;27.70;56.40;;;;;;6261155;28;20223;-81
2023/07/10 14:57:20;;;;;;;7.93;7.37;;;27.90;56.10;;;;;;6259847;28;20233;-82
2023/07/10 15:00:26;;;;;;;8.07;7.67;;;27.90;55.70;;;;;;6255429;28;20670;-82
2023/07/10 15:03:29;;;;;;;8.13;7.43;;;27.80;55.80;;;;;;6274323;28;20244;-80
2023/07/10 15:06:42;;;;;;;7.43;6.93;;;27.70;55.60;;;;;;6262363;28;20325;-79
2023/07/10 15:09:46;;;;;;;7.20;6.63;;;27.70;55.50;;;;;;6259836;28;20313;-84
2023/07/10 15:12:54;;;;;;;7.00;6.60;;;27.50;55.20;;;;;;6274232;28;20250;-83
2023/07/10 15:16:00;;;;;;;6.57;6.10;;;27.50;55.40;;;;;;6286885;28;20226;-84
2023/07/10 15:19:05;;;;;;;6.57;6.30;;;27.40;55.20;;;;;;6292299;28;20241;-81
2023/07/10 15:22:15;;;;;;;6.03;5.83;;;27.60;55.50;;;;;;6290486;28;20304;-84
2023/07/10 15:25:22;;;;;;;6.27;5.97;;;27.50;55.70;;;;;;6306823;28;20252;-81
2023/07/10 15:28:28;;;;;;;6.60;6.13;;;27.80;55.10;;;;;;6309132;28;20233;-84
2023/07/10 15:31:32;;;;;;;6.00;5.80;;;27.30;55.70;;;;;;6310857;28;20241;-81
2023/07/10 15:34:36;;;;;;;5.80;5.50;;;27.20;55.70;;;;;;6289294;28;20238;-82
2023/07/10 15:37:41;;;;;;;6.97;6.50;;;27.30;55.80;;;;;;6281759;28;20257;-84
2023/07/10 15:40:46;;;;;;;6.27;5.80;;;27.50;55.20;;;;;;6273040;28;20305;-82
2023/07/10 15:43:49;;;;;;;5.13;4.93;;;27.60;55.00;;;;;;6258236;28;20856;-82
2023/07/10 15:46:52;;;;;;;6.27;5.53;;;27.70;54.90;;;;;;6271442;28;20245;-83
2023/07/10 15:49:56;;;;;;;5.83;5.53;;;27.70;54.50;;;;;;6273752;28;20244;-82
2023/07/10 15:53:02;;;;;;;6.23;5.63;;;27.90;54.60;;;;;;6266529;28;20241;-84
2023/07/10 15:56:05;;;;;;;6.00;5.60;;;27.70;54.70;;;;;;6271430;28;20238;-84
2023/07/10 15:59:12;;;;;;;6.17;5.87;;;27.60;54.70;;;;;;6250206;28;20238;-84
2023/07/10 16:02:26;;;;;;;6.23;5.93;;;27.50;54.80;;;;;;6270486;28;20336;-84
2023/07/10 16:05:31;;;;;;;5.43;5.13;;;27.70;54.80;;;;;;6276675;28;20317;-85